INFORMACIóN METAR y TAF
METAR FOR SCRM
ADDS - METARS form results

(0607 UTC 23 October 2020)
Data provider http://aviationweather.gov/metar/data/
 
METAR text: SCRM 230600Z 26027KT 9999 FEW007 M02/M04 Q0987 NOSIG
Conditions at: SCRM (TENIENTE R MARSH, CL) observed 0600 UTC 23 October 2020
Temperature: -2.0°C (28°F)
Dewpoint: -4.0°C (25°F) [RH = 86%]
Pressure (altimeter): 29.14 inches Hg (987.0 mb)
Winds: from the W (260 degrees) at 31 MPH (27 knots; 13.9 m/s)
Visibility: 6 or more miles (10+ km)
Ceiling: at least 12,000 feet AGL
Clouds: few clouds at 700 feet AGL
Weather: no significant weather observed at this time

MAPA DE AEROPUERTO

INFORMACIóN DE PISTA
Pista 11 Longitud 4238 ft Ancho 125 ft
Elevación 142 ft Umbral desplazado 0 ft Rumbo de pista 122
Pista 29 Longitud 4238 ft Ancho 125 ft
Elevación 127 ft Umbral desplazado 0 ft Rumbo de pista 302

FRECUANCIAS DEL AEROPUERTO
Tipo APP Nombre MARSH APP Frecuencia 118.1 MHZ
Tipo TWR Nombre TWR Frecuencia 118.1 MHZ

RADIO AYUDAS DEL AEROPUERTO
Tipo VOR-DME Nombre Isla Rey Jorge Frecuencia 113300 KHZ
Tipo NDB Nombre Isla Rey Jorge Frecuencia 360 KHZ



Si desea hacer un donativo para mantenimiento de el dominio y el alojamiento web pulse en elboton donar y siga los pasos. Desde ya muchas gracias.

Powered by Virtual Airlines Manager
Ver 2.5.2